sensor_id;sensor_type;location;lat;lon;timestamp;P1;durP1;ratioP1;P2;durP2;ratioP2
11082;SDS011;5595;50.186;8.468;2022-07-22T00:02:16;6.60;;;5.13;;
11082;SDS011;5595;50.186;8.468;2022-07-22T00:04:43;4.63;;;4.15;;
11082;SDS011;5595;50.186;8.468;2022-07-22T00:07:10;6.43;;;5.07;;
11082;SDS011;5595;50.186;8.468;2022-07-22T00:09:38;8.27;;;6.55;;
11082;SDS011;5595;50.186;8.468;2022-07-22T00:12:06;6.03;;;5.18;;
11082;SDS011;5595;50.186;8.468;2022-07-22T00:14:34;7.45;;;5.57;;
11082;SDS011;5595;50.186;8.468;2022-07-22T00:17:01;8.43;;;6.25;;
11082;SDS011;5595;50.186;8.468;2022-07-22T00:19:29;8.35;;;6.68;;
11082;SDS011;5595;50.186;8.468;2022-07-22T00:21:56;7.80;;;6.18;;
11082;SDS011;5595;50.186;8.468;2022-07-22T00:24:23;6.35;;;5.75;;
11082;SDS011;5595;50.186;8.468;2022-07-22T00:26:50;7.85;;;6.22;;
11082;SDS011;5595;50.186;8.468;2022-07-22T00:29:18;6.25;;;5.18;;
11082;SDS011;5595;50.186;8.468;2022-07-22T00:31:46;6.97;;;5.30;;
11082;SDS011;5595;50.186;8.468;2022-07-22T00:34:13;5.82;;;5.22;;
11082;SDS011;5595;50.186;8.468;2022-07-22T00:36:40;4.82;;;4.38;;
11082;SDS011;5595;50.186;8.468;2022-07-22T00:39:07;6.20;;;5.35;;
11082;SDS011;5595;50.186;8.468;2022-07-22T00:41:33;6.68;;;5.25;;
11082;SDS011;5595;50.186;8.468;2022-07-22T00:44:04;5.63;;;5.05;;
11082;SDS011;5595;50.186;8.468;2022-07-22T00:46:35;6.70;;;6.10;;
11082;SDS011;5595;50.186;8.468;2022-07-22T00:49:03;7.68;;;5.72;;
11082;SDS011;5595;50.186;8.468;2022-07-22T00:51:31;6.70;;;5.47;;
11082;SDS011;5595;50.186;8.468;2022-07-22T00:53:58;7.80;;;5.30;;
11082;SDS011;5595;50.186;8.468;2022-07-22T00:56:26;5.95;;;5.40;;
11082;SDS011;5595;50.186;8.468;2022-07-22T00:58:54;7.40;;;4.95;;
11082;SDS011;5595;50.186;8.468;2022-07-22T01:01:23;5.90;;;5.30;;
11082;SDS011;5595;50.186;8.468;2022-07-22T01:03:51;6.30;;;4.80;;
11082;SDS011;5595;50.186;8.468;2022-07-22T01:06:18;8.60;;;5.18;;
11082;SDS011;5595;50.186;8.468;2022-07-22T01:08:45;8.13;;;4.80;;
11082;SDS011;5595;50.186;8.468;2022-07-22T01:11:13;7.00;;;5.05;;
11082;SDS011;5595;50.186;8.468;2022-07-22T01:13:43;7.22;;;4.72;;
11082;SDS011;5595;50.186;8.468;2022-07-22T01:16:14;6.22;;;4.75;;
11082;SDS011;5595;50.186;8.468;2022-07-22T01:18:42;6.13;;;4.97;;
11082;SDS011;5595;50.186;8.468;2022-07-22T01:21:12;5.50;;;5.00;;
11082;SDS011;5595;50.186;8.468;2022-07-22T01:23:40;5.35;;;4.85;;
11082;SDS011;5595;50.186;8.468;2022-07-22T01:26:07;5.85;;;4.93;;
11082;SDS011;5595;50.186;8.468;2022-07-22T01:28:34;6.07;;;4.30;;
11082;SDS011;5595;50.186;8.468;2022-07-22T01:31:01;5.22;;;4.72;;
11082;SDS011;5595;50.186;8.468;2022-07-22T01:33:28;6.05;;;5.55;;
11082;SDS011;5595;50.186;8.468;2022-07-22T01:35:55;7.88;;;5.50;;
11082;SDS011;5595;50.186;8.468;2022-07-22T01:38:23;8.65;;;6.20;;
11082;SDS011;5595;50.186;8.468;2022-07-22T01:40:50;8.63;;;5.82;;
11082;SDS011;5595;50.186;8.468;2022-07-22T01:43:20;8.05;;;6.22;;
11082;SDS011;5595;50.186;8.468;2022-07-22T01:45:48;7.60;;;5.43;;
11082;SDS011;5595;50.186;8.468;2022-07-22T01:48:17;6.13;;;5.53;;
11082;SDS011;5595;50.186;8.468;2022-07-22T01:50:45;6.55;;;5.50;;
11082;SDS011;5595;50.186;8.468;2022-07-22T01:53:12;7.38;;;6.65;;
11082;SDS011;5595;50.186;8.468;2022-07-22T01:55:40;7.63;;;6.18;;
11082;SDS011;5595;50.186;8.468;2022-07-22T01:58:07;6.55;;;5.80;;
11082;SDS011;5595;50.186;8.468;2022-07-22T02:00:34;12.20;;;6.32;;
11082;SDS011;5595;50.186;8.468;2022-07-22T02:03:02;10.30;;;6.50;;
11082;SDS011;5595;50.186;8.468;2022-07-22T02:05:30;5.93;;;5.43;;
11082;SDS011;5595;50.186;8.468;2022-07-22T02:07:59;7.50;;;6.35;;
11082;SDS011;5595;50.186;8.468;2022-07-22T02:10:26;6.57;;;5.57;;
11082;SDS011;5595;50.186;8.468;2022-07-22T02:12:58;5.65;;;5.05;;
11082;SDS011;5595;50.186;8.468;2022-07-22T02:15:25;5.50;;;4.53;;
11082;SDS011;5595;50.186;8.468;2022-07-22T02:17:53;5.95;;;4.47;;
11082;SDS011;5595;50.186;8.468;2022-07-22T02:20:19;4.82;;;4.32;;
11082;SDS011;5595;50.186;8.468;2022-07-22T02:22:47;5.38;;;4.70;;
11082;SDS011;5595;50.186;8.468;2022-07-22T02:25:14;5.88;;;4.55;;
11082;SDS011;5595;50.186;8.468;2022-07-22T02:27:41;5.60;;;4.78;;
11082;SDS011;5595;50.186;8.468;2022-07-22T02:30:10;5.55;;;5.03;;
11082;SDS011;5595;50.186;8.468;2022-07-22T02:32:37;8.75;;;5.30;;
11082;SDS011;5595;50.186;8.468;2022-07-22T02:35:05;6.05;;;4.72;;
11082;SDS011;5595;50.186;8.468;2022-07-22T02:37:32;5.28;;;4.70;;
11082;SDS011;5595;50.186;8.468;2022-07-22T02:39:59;4.63;;;4.25;;
11082;SDS011;5595;50.186;8.468;2022-07-22T02:42:26;5.60;;;5.10;;
11082;SDS011;5595;50.186;8.468;2022-07-22T02:44:53;6.20;;;5.60;;
11082;SDS011;5595;50.186;8.468;2022-07-22T02:47:22;6.55;;;4.78;;
11082;SDS011;5595;50.186;8.468;2022-07-22T02:49:48;5.88;;;5.03;;
11082;SDS011;5595;50.186;8.468;2022-07-22T02:52:16;7.43;;;5.00;;
11082;SDS011;5595;50.186;8.468;2022-07-22T02:54:43;6.32;;;4.32;;
11082;SDS011;5595;50.186;8.468;2022-07-22T02:57:09;4.78;;;4.20;;
11082;SDS011;5595;50.186;8.468;2022-07-22T02:59:36;6.85;;;4.75;;
11082;SDS011;5595;50.186;8.468;2022-07-22T03:02:03;6.18;;;4.38;;
11082;SDS011;5595;50.186;8.468;2022-07-22T03:04:32;6.60;;;5.28;;
11082;SDS011;5595;50.186;8.468;2022-07-22T03:06:59;7.15;;;5.10;;
11082;SDS011;5595;50.186;8.468;2022-07-22T03:09:26;6.53;;;5.07;;
11082;SDS011;5595;50.186;8.468;2022-07-22T03:11:53;5.95;;;4.43;;
11082;SDS011;5595;50.186;8.468;2022-07-22T03:14:20;6.97;;;4.70;;
11082;SDS011;5595;50.186;8.468;2022-07-22T03:16:47;7.32;;;5.78;;
11082;SDS011;5595;50.186;8.468;2022-07-22T03:19:16;7.55;;;5.53;;
11082;SDS011;5595;50.186;8.468;2022-07-22T03:21:45;5.80;;;5.28;;
11082;SDS011;5595;50.186;8.468;2022-07-22T03:24:12;7.53;;;5.10;;
11082;SDS011;5595;50.186;8.468;2022-07-22T03:26:39;6.18;;;5.20;;
11082;SDS011;5595;50.186;8.468;2022-07-22T03:29:06;6.18;;;5.40;;
11082;SDS011;5595;50.186;8.468;2022-07-22T03:31:33;7.88;;;5.78;;
11082;SDS011;5595;50.186;8.468;2022-07-22T03:34:04;9.80;;;5.45;;
11082;SDS011;5595;50.186;8.468;2022-07-22T03:36:31;7.70;;;6.22;;
11082;SDS011;5595;50.186;8.468;2022-07-22T03:39:00;6.35;;;5.75;;
11082;SDS011;5595;50.186;8.468;2022-07-22T03:41:27;8.82;;;7.38;;
11082;SDS011;5595;50.186;8.468;2022-07-22T03:43:54;8.15;;;7.15;;
11082;SDS011;5595;50.186;8.468;2022-07-22T03:46:21;8.35;;;7.55;;
11082;SDS011;5595;50.186;8.468;2022-07-22T03:48:48;9.50;;;8.50;;
11082;SDS011;5595;50.186;8.468;2022-07-22T03:51:15;9.38;;;8.35;;
11082;SDS011;5595;50.186;8.468;2022-07-22T03:53:42;10.35;;;8.32;;
11082;SDS011;5595;50.186;8.468;2022-07-22T03:56:10;9.90;;;8.70;;
11082;SDS011;5595;50.186;8.468;2022-07-22T03:58:37;13.35;;;9.32;;
11082;SDS011;5595;50.186;8.468;2022-07-22T04:01:04;11.25;;;8.70;;
11082;SDS011;5595;50.186;8.468;2022-07-22T04:03:31;10.95;;;9.38;;
11082;SDS011;5595;50.186;8.468;2022-07-22T04:05:59;10.30;;;8.93;;
11082;SDS011;5595;50.186;8.468;2022-07-22T04:08:26;10.73;;;9.65;;
11082;SDS011;5595;50.186;8.468;2022-07-22T04:10:53;10.60;;;9.50;;
11082;SDS011;5595;50.186;8.468;2022-07-22T04:13:21;10.30;;;9.13;;
11082;SDS011;5595;50.186;8.468;2022-07-22T04:15:48;10.23;;;9.23;;
11082;SDS011;5595;50.186;8.468;2022-07-22T04:18:15;12.23;;;9.18;;
11082;SDS011;5595;50.186;8.468;2022-07-22T05:12:47;11.15;;;7.50;;
11082;SDS011;5595;50.186;8.468;2022-07-22T05:15:14;8.05;;;7.22;;
11082;SDS011;5595;50.186;8.468;2022-07-22T05:17:41;10.07;;;7.88;;
11082;SDS011;5595;50.186;8.468;2022-07-22T05:20:08;8.93;;;8.02;;
11082;SDS011;5595;50.186;8.468;2022-07-22T05:22:37;9.07;;;8.02;;
11082;SDS011;5595;50.186;8.468;2022-07-22T05:25:04;8.73;;;7.82;;
11082;SDS011;5595;50.186;8.468;2022-07-22T05:27:31;8.10;;;7.22;;
11082;SDS011;5595;50.186;8.468;2022-07-22T05:29:59;7.80;;;7.10;;
11082;SDS011;5595;50.186;8.468;2022-07-22T05:32:26;10.32;;;8.63;;
11082;SDS011;5595;50.186;8.468;2022-07-22T05:34:53;9.60;;;8.70;;
11082;SDS011;5595;50.186;8.468;2022-07-22T05:37:20;10.38;;;8.52;;
11082;SDS011;5595;50.186;8.468;2022-07-22T05:39:47;10.32;;;8.45;;
11082;SDS011;5595;50.186;8.468;2022-07-22T05:42:14;7.93;;;7.15;;
11082;SDS011;5595;50.186;8.468;2022-07-22T05:44:41;8.80;;;7.13;;
11082;SDS011;5595;50.186;8.468;2022-07-22T05:47:10;8.40;;;7.60;;
11082;SDS011;5595;50.186;8.468;2022-07-22T05:49:37;8.52;;;7.65;;
11082;SDS011;5595;50.186;8.468;2022-07-22T05:52:04;10.13;;;7.10;;
11082;SDS011;5595;50.186;8.468;2022-07-22T05:54:31;7.30;;;6.60;;
11082;SDS011;5595;50.186;8.468;2022-07-22T05:56:58;7.57;;;6.88;;
11082;SDS011;5595;50.186;8.468;2022-07-22T05:59:25;8.57;;;7.40;;
11082;SDS011;5595;50.186;8.468;2022-07-22T06:01:52;8.70;;;7.05;;
11082;SDS011;5595;50.186;8.468;2022-07-22T06:04:20;6.78;;;6.10;;
11082;SDS011;5595;50.186;8.468;2022-07-22T06:06:47;6.78;;;6.15;;
11082;SDS011;5595;50.186;8.468;2022-07-22T06:09:14;5.95;;;5.43;;
11082;SDS011;5595;50.186;8.468;2022-07-22T06:11:41;9.85;;;6.93;;
11082;SDS011;5595;50.186;8.468;2022-07-22T06:14:08;6.95;;;6.10;;
11082;SDS011;5595;50.186;8.468;2022-07-22T06:16:35;7.43;;;6.70;;
11082;SDS011;5595;50.186;8.468;2022-07-22T06:19:02;7.50;;;6.80;;
11082;SDS011;5595;50.186;8.468;2022-07-22T06:21:33;7.07;;;6.18;;
11082;SDS011;5595;50.186;8.468;2022-07-22T06:24:01;10.02;;;7.93;;
11082;SDS011;5595;50.186;8.468;2022-07-22T06:26:28;6.63;;;5.88;;
11082;SDS011;5595;50.186;8.468;2022-07-22T06:28:56;6.55;;;5.88;;
11082;SDS011;5595;50.186;8.468;2022-07-22T06:31:23;6.38;;;5.78;;
11082;SDS011;5595;50.186;8.468;2022-07-22T06:33:51;5.22;;;4.65;;
11082;SDS011;5595;50.186;8.468;2022-07-22T06:36:18;7.40;;;6.35;;
11082;SDS011;5595;50.186;8.468;2022-07-22T06:38:46;7.07;;;6.32;;
11082;SDS011;5595;50.186;8.468;2022-07-22T06:41:16;9.07;;;7.13;;
11082;SDS011;5595;50.186;8.468;2022-07-22T06:43:44;6.95;;;6.20;;
11082;SDS011;5595;50.186;8.468;2022-07-22T06:46:11;6.82;;;6.05;;
11082;SDS011;5595;50.186;8.468;2022-07-22T06:48:38;7.85;;;6.20;;
11082;SDS011;5595;50.186;8.468;2022-07-22T06:51:05;6.80;;;5.13;;
11082;SDS011;5595;50.186;8.468;2022-07-22T06:53:32;7.60;;;6.20;;
11082;SDS011;5595;50.186;8.468;2022-07-22T06:56:01;5.20;;;4.70;;
11082;SDS011;5595;50.186;8.468;2022-07-22T06:58:28;6.13;;;5.53;;
11082;SDS011;5595;50.186;8.468;2022-07-22T07:00:55;8.18;;;6.47;;
11082;SDS011;5595;50.186;8.468;2022-07-22T07:03:22;7.28;;;6.57;;
11082;SDS011;5595;50.186;8.468;2022-07-22T07:05:50;6.85;;;5.38;;
11082;SDS011;5595;50.186;8.468;2022-07-22T07:08:17;7.05;;;6.38;;
11082;SDS011;5595;50.186;8.468;2022-07-22T07:10:45;6.82;;;6.22;;
11082;SDS011;5595;50.186;8.468;2022-07-22T07:13:14;8.75;;;6.90;;
11082;SDS011;5595;50.186;8.468;2022-07-22T07:15:41;6.50;;;5.90;;
11082;SDS011;5595;50.186;8.468;2022-07-22T07:18:08;7.30;;;6.60;;
11082;SDS011;5595;50.186;8.468;2022-07-22T07:20:35;6.80;;;6.18;;
11082;SDS011;5595;50.186;8.468;2022-07-22T07:23:04;7.53;;;6.40;;
11082;SDS011;5595;50.186;8.468;2022-07-22T07:25:34;7.30;;;6.25;;
11082;SDS011;5595;50.186;8.468;2022-07-22T07:28:01;7.47;;;5.70;;
11082;SDS011;5595;50.186;8.468;2022-07-22T07:30:30;6.53;;;5.13;;
11082;SDS011;5595;50.186;8.468;2022-07-22T07:32:57;6.78;;;6.18;;
11082;SDS011;5595;50.186;8.468;2022-07-22T07:35:25;6.55;;;5.82;;
11082;SDS011;5595;50.186;8.468;2022-07-22T07:37:53;8.95;;;5.78;;
11082;SDS011;5595;50.186;8.468;2022-07-22T07:40:20;7.68;;;6.15;;
11082;SDS011;5595;50.186;8.468;2022-07-22T07:42:47;6.35;;;5.72;;
11082;SDS011;5595;50.186;8.468;2022-07-22T07:45:14;7.05;;;5.57;;
11082;SDS011;5595;50.186;8.468;2022-07-22T07:47:43;6.20;;;5.68;;
11082;SDS011;5595;50.186;8.468;2022-07-22T07:50:11;7.97;;;5.15;;
11082;SDS011;5595;50.186;8.468;2022-07-22T07:52:39;6.40;;;4.60;;
11082;SDS011;5595;50.186;8.468;2022-07-22T07:55:07;8.82;;;6.30;;
11082;SDS011;5595;50.186;8.468;2022-07-22T07:57:35;7.65;;;5.47;;
11082;SDS011;5595;50.186;8.468;2022-07-22T08:00:03;7.43;;;5.88;;
11082;SDS011;5595;50.186;8.468;2022-07-22T08:02:32;4.30;;;3.90;;
11082;SDS011;5595;50.186;8.468;2022-07-22T08:05:01;4.70;;;4.25;;
11082;SDS011;5595;50.186;8.468;2022-07-22T08:07:28;5.65;;;5.07;;
11082;SDS011;5595;50.186;8.468;2022-07-22T08:09:55;5.72;;;5.22;;
11082;SDS011;5595;50.186;8.468;2022-07-22T08:12:22;5.40;;;4.97;;
11082;SDS011;5595;50.186;8.468;2022-07-22T08:14:49;8.00;;;5.63;;
11082;SDS011;5595;50.186;8.468;2022-07-22T08:17:17;5.57;;;4.35;;
11082;SDS011;5595;50.186;8.468;2022-07-22T08:19:45;6.68;;;4.82;;
11082;SDS011;5595;50.186;8.468;2022-07-22T08:22:13;7.78;;;4.20;;
11082;SDS011;5595;50.186;8.468;2022-07-22T08:24:43;4.95;;;3.92;;
11082;SDS011;5595;50.186;8.468;2022-07-22T08:27:10;4.97;;;4.47;;
11082;SDS011;5595;50.186;8.468;2022-07-22T08:29:37;6.38;;;4.53;;
11082;SDS011;5595;50.186;8.468;2022-07-22T08:32:05;4.97;;;4.38;;
11082;SDS011;5595;50.186;8.468;2022-07-22T08:34:32;4.88;;;4.32;;
11082;SDS011;5595;50.186;8.468;2022-07-22T08:36:59;4.72;;;4.32;;
11082;SDS011;5595;50.186;8.468;2022-07-22T08:39:28;4.45;;;4.05;;
11082;SDS011;5595;50.186;8.468;2022-07-22T08:41:56;4.55;;;4.15;;
11082;SDS011;5595;50.186;8.468;2022-07-22T08:44:23;3.90;;;3.60;;
11082;SDS011;5595;50.186;8.468;2022-07-22T08:46:50;3.75;;;3.45;;
11082;SDS011;5595;50.186;8.468;2022-07-22T08:49:17;5.00;;;3.60;;
11082;SDS011;5595;50.186;8.468;2022-07-22T08:51:44;3.78;;;3.47;;
11082;SDS011;5595;50.186;8.468;2022-07-22T08:54:12;4.47;;;3.85;;
11082;SDS011;5595;50.186;8.468;2022-07-22T08:56:40;5.28;;;3.35;;
11082;SDS011;5595;50.186;8.468;2022-07-22T08:59:07;3.30;;;3.10;;
11082;SDS011;5595;50.186;8.468;2022-07-22T09:01:34;3.78;;;3.47;;
11082;SDS011;5595;50.186;8.468;2022-07-22T09:04:02;5.05;;;3.15;;
11082;SDS011;5595;50.186;8.468;2022-07-22T09:06:29;4.55;;;3.65;;
11082;SDS011;5595;50.186;8.468;2022-07-22T09:08:59;6.55;;;3.88;;
11082;SDS011;5595;50.186;8.468;2022-07-22T09:11:28;3.80;;;3.50;;
11082;SDS011;5595;50.186;8.468;2022-07-22T09:13:59;5.03;;;3.83;;
11082;SDS011;5595;50.186;8.468;2022-07-22T09:16:40;4.13;;;3.80;;
11082;SDS011;5595;50.186;8.468;2022-07-22T09:19:08;4.53;;;3.55;;
11082;SDS011;5595;50.186;8.468;2022-07-22T09:21:37;3.20;;;2.90;;
11082;SDS011;5595;50.186;8.468;2022-07-22T09:24:05;4.93;;;3.65;;
11082;SDS011;5595;50.186;8.468;2022-07-22T09:26:34;3.47;;;3.17;;
11082;SDS011;5595;50.186;8.468;2022-07-22T09:29:04;3.55;;;3.25;;
11082;SDS011;5595;50.186;8.468;2022-07-22T09:31:33;6.03;;;3.42;;
11082;SDS011;5595;50.186;8.468;2022-07-22T09:34:00;3.78;;;3.20;;
11082;SDS011;5595;50.186;8.468;2022-07-22T09:36:28;3.45;;;3.13;;
11082;SDS011;5595;50.186;8.468;2022-07-22T09:38:56;3.28;;;3.00;;
11082;SDS011;5595;50.186;8.468;2022-07-22T09:41:23;3.67;;;3.33;;
11082;SDS011;5595;50.186;8.468;2022-07-22T09:43:51;5.00;;;3.38;;
11082;SDS011;5595;50.186;8.468;2022-07-22T09:49:03;4.63;;;4.22;;
11082;SDS011;5595;50.186;8.468;2022-07-22T09:51:30;4.25;;;3.63;;
11082;SDS011;5595;50.186;8.468;2022-07-22T09:53:57;4.05;;;3.58;;
11082;SDS011;5595;50.186;8.468;2022-07-22T09:56:25;3.97;;;3.67;;
11082;SDS011;5595;50.186;8.468;2022-07-22T09:58:55;3.38;;;3.08;;
11082;SDS011;5595;50.186;8.468;2022-07-22T10:01:22;6.68;;;3.97;;
11082;SDS011;5595;50.186;8.468;2022-07-22T10:03:51;4.10;;;3.75;;
11082;SDS011;5595;50.186;8.468;2022-07-22T10:06:20;3.67;;;2.90;;
11082;SDS011;5595;50.186;8.468;2022-07-22T10:08:48;4.30;;;3.90;;
11082;SDS011;5595;50.186;8.468;2022-07-22T10:11:17;6.45;;;3.92;;
11082;SDS011;5595;50.186;8.468;2022-07-22T10:13:45;3.90;;;3.60;;
11082;SDS011;5595;50.186;8.468;2022-07-22T10:16:13;4.57;;;3.80;;
11082;SDS011;5595;50.186;8.468;2022-07-22T10:18:44;3.80;;;3.40;;
11082;SDS011;5595;50.186;8.468;2022-07-22T10:21:14;4.43;;;3.92;;
11082;SDS011;5595;50.186;8.468;2022-07-22T10:26:48;4.28;;;3.65;;
11082;SDS011;5595;50.186;8.468;2022-07-22T10:29:29;7.95;;;3.83;;
11082;SDS011;5595;50.186;8.468;2022-07-22T10:37:50;6.38;;;3.53;;
11082;SDS011;5595;50.186;8.468;2022-07-22T10:40:21;4.22;;;3.75;;
11082;SDS011;5595;50.186;8.468;2022-07-22T10:43:04;3.90;;;3.55;;
11082;SDS011;5595;50.186;8.468;2022-07-22T10:45:34;4.25;;;3.45;;
11082;SDS011;5595;50.186;8.468;2022-07-22T10:48:06;3.95;;;3.42;;
11082;SDS011;5595;50.186;8.468;2022-07-22T10:50:38;4.18;;;3.88;;
11082;SDS011;5595;50.186;8.468;2022-07-22T10:53:08;7.53;;;3.92;;
11082;SDS011;5595;50.186;8.468;2022-07-22T10:55:36;4.10;;;3.80;;
11082;SDS011;5595;50.186;8.468;2022-07-22T11:01:07;4.13;;;3.63;;
11082;SDS011;5595;50.186;8.468;2022-07-22T11:03:37;4.00;;;3.70;;
11082;SDS011;5595;50.186;8.468;2022-07-22T11:06:14;5.07;;;3.40;;
11082;SDS011;5595;50.186;8.468;2022-07-22T11:08:44;3.70;;;3.40;;
11082;SDS011;5595;50.186;8.468;2022-07-22T11:11:14;4.47;;;3.90;;
11082;SDS011;5595;50.186;8.468;2022-07-22T11:13:42;4.00;;;3.65;;
11082;SDS011;5595;50.186;8.468;2022-07-22T11:16:17;6.35;;;4.22;;
11082;SDS011;5595;50.186;8.468;2022-07-22T11:18:50;3.97;;;3.67;;
11082;SDS011;5595;50.186;8.468;2022-07-22T11:21:19;4.18;;;3.88;;
11082;SDS011;5595;50.186;8.468;2022-07-22T11:23:50;4.32;;;3.92;;
11082;SDS011;5595;50.186;8.468;2022-07-22T11:26:19;4.03;;;3.67;;
11082;SDS011;5595;50.186;8.468;2022-07-22T11:28:50;4.13;;;3.72;;
11082;SDS011;5595;50.186;8.468;2022-07-22T11:31:18;6.10;;;5.50;;
11082;SDS011;5595;50.186;8.468;2022-07-22T11:33:45;5.20;;;4.30;;
11082;SDS011;5595;50.186;8.468;2022-07-22T11:36:12;5.38;;;4.10;;
11082;SDS011;5595;50.186;8.468;2022-07-22T11:38:41;3.90;;;3.60;;
11082;SDS011;5595;50.186;8.468;2022-07-22T11:41:10;4.65;;;3.90;;
11082;SDS011;5595;50.186;8.468;2022-07-22T11:43:42;5.40;;;5.00;;
11082;SDS011;5595;50.186;8.468;2022-07-22T11:46:11;4.82;;;4.40;;
11082;SDS011;5595;50.186;8.468;2022-07-22T11:48:38;10.38;;;9.25;;
11082;SDS011;5595;50.186;8.468;2022-07-22T11:51:06;4.82;;;4.32;;
11082;SDS011;5595;50.186;8.468;2022-07-22T11:53:35;4.35;;;4.05;;
11082;SDS011;5595;50.186;8.468;2022-07-22T11:56:03;7.45;;;5.45;;
11082;SDS011;5595;50.186;8.468;2022-07-22T11:58:37;5.32;;;4.43;;
11082;SDS011;5595;50.186;8.468;2022-07-22T12:01:07;4.38;;;4.07;;
11082;SDS011;5595;50.186;8.468;2022-07-22T12:03:36;4.95;;;4.38;;
11082;SDS011;5595;50.186;8.468;2022-07-22T12:06:06;5.50;;;4.57;;
11082;SDS011;5595;50.186;8.468;2022-07-22T12:08:38;5.78;;;5.28;;
11082;SDS011;5595;50.186;8.468;2022-07-22T12:11:07;7.45;;;4.45;;
11082;SDS011;5595;50.186;8.468;2022-07-22T12:13:38;5.43;;;4.93;;
11082;SDS011;5595;50.186;8.468;2022-07-22T12:16:18;4.25;;;3.90;;
11082;SDS011;5595;50.186;8.468;2022-07-22T12:18:52;4.85;;;4.07;;
11082;SDS011;5595;50.186;8.468;2022-07-22T12:21:23;5.20;;;4.35;;
11082;SDS011;5595;50.186;8.468;2022-07-22T12:23:52;4.93;;;4.43;;
11082;SDS011;5595;50.186;8.468;2022-07-22T12:29:17;4.32;;;3.97;;
11082;SDS011;5595;50.186;8.468;2022-07-22T12:31:46;4.18;;;3.88;;
11082;SDS011;5595;50.186;8.468;2022-07-22T12:34:15;4.07;;;3.75;;
11082;SDS011;5595;50.186;8.468;2022-07-22T12:36:57;5.65;;;4.60;;
11082;SDS011;5595;50.186;8.468;2022-07-22T12:39:28;4.57;;;4.18;;
11082;SDS011;5595;50.186;8.468;2022-07-22T12:41:55;4.47;;;4.07;;
11082;SDS011;5595;50.186;8.468;2022-07-22T12:44:24;4.68;;;4.32;;
11082;SDS011;5595;50.186;8.468;2022-07-22T12:46:53;4.65;;;4.22;;
11082;SDS011;5595;50.186;8.468;2022-07-22T12:49:22;4.22;;;3.90;;
11082;SDS011;5595;50.186;8.468;2022-07-22T12:52:06;4.28;;;3.88;;
11082;SDS011;5595;50.186;8.468;2022-07-22T12:54:34;5.07;;;4.55;;
11082;SDS011;5595;50.186;8.468;2022-07-22T12:57:03;5.13;;;4.63;;
11082;SDS011;5595;50.186;8.468;2022-07-22T12:59:32;4.50;;;4.07;;
11082;SDS011;5595;50.186;8.468;2022-07-22T13:01:59;4.82;;;4.40;;
11082;SDS011;5595;50.186;8.468;2022-07-22T13:04:27;4.88;;;4.38;;
11082;SDS011;5595;50.186;8.468;2022-07-22T13:06:55;4.65;;;4.28;;
11082;SDS011;5595;50.186;8.468;2022-07-22T13:09:22;8.73;;;5.00;;
11082;SDS011;5595;50.186;8.468;2022-07-22T13:11:49;5.32;;;3.92;;
11082;SDS011;5595;50.186;8.468;2022-07-22T13:14:16;8.50;;;4.57;;
11082;SDS011;5595;50.186;8.468;2022-07-22T13:16:45;6.13;;;4.57;;
11082;SDS011;5595;50.186;8.468;2022-07-22T13:19:12;4.90;;;4.50;;
11082;SDS011;5595;50.186;8.468;2022-07-22T13:21:39;4.57;;;4.18;;
11082;SDS011;5595;50.186;8.468;2022-07-22T13:24:06;6.80;;;4.80;;
11082;SDS011;5595;50.186;8.468;2022-07-22T13:26:36;6.18;;;4.53;;
11082;SDS011;5595;50.186;8.468;2022-07-22T13:29:03;4.85;;;4.32;;
11082;SDS011;5595;50.186;8.468;2022-07-22T13:31:30;5.70;;;4.60;;
11082;SDS011;5595;50.186;8.468;2022-07-22T13:33:59;4.78;;;4.10;;
11082;SDS011;5595;50.186;8.468;2022-07-22T13:36:26;4.75;;;4.30;;
11082;SDS011;5595;50.186;8.468;2022-07-22T13:38:57;4.30;;;3.90;;
11082;SDS011;5595;50.186;8.468;2022-07-22T13:41:25;5.05;;;4.20;;
11082;SDS011;5595;50.186;8.468;2022-07-22T13:43:52;5.47;;;4.97;;
11082;SDS011;5595;50.186;8.468;2022-07-22T13:46:19;6.30;;;4.78;;
11082;SDS011;5595;50.186;8.468;2022-07-22T13:48:46;6.97;;;4.70;;
11082;SDS011;5595;50.186;8.468;2022-07-22T13:51:15;4.78;;;4.38;;
11082;SDS011;5595;50.186;8.468;2022-07-22T13:53:42;5.57;;;5.07;;
11082;SDS011;5595;50.186;8.468;2022-07-22T13:56:09;5.75;;;4.70;;
11082;SDS011;5595;50.186;8.468;2022-07-22T13:58:37;4.97;;;4.47;;
11082;SDS011;5595;50.186;8.468;2022-07-22T14:01:06;4.85;;;4.45;;
11082;SDS011;5595;50.186;8.468;2022-07-22T14:03:34;6.68;;;4.50;;
11082;SDS011;5595;50.186;8.468;2022-07-22T14:06:02;5.72;;;5.15;;
11082;SDS011;5595;50.186;8.468;2022-07-22T14:08:31;5.15;;;4.40;;
11082;SDS011;5595;50.186;8.468;2022-07-22T14:10:58;5.25;;;4.55;;
11082;SDS011;5595;50.186;8.468;2022-07-22T14:13:25;5.70;;;4.70;;
11082;SDS011;5595;50.186;8.468;2022-07-22T14:15:52;5.68;;;4.65;;
11082;SDS011;5595;50.186;8.468;2022-07-22T14:18:19;5.35;;;4.20;;
11082;SDS011;5595;50.186;8.468;2022-07-22T14:20:46;5.00;;;4.50;;
11082;SDS011;5595;50.186;8.468;2022-07-22T14:23:13;5.13;;;4.28;;
11082;SDS011;5595;50.186;8.468;2022-07-22T14:25:43;5.50;;;4.72;;
11082;SDS011;5595;50.186;8.468;2022-07-22T14:28:10;10.00;;;4.63;;
11082;SDS011;5595;50.186;8.468;2022-07-22T14:30:37;6.72;;;4.30;;
11082;SDS011;5595;50.186;8.468;2022-07-22T14:33:04;6.28;;;4.72;;
11082;SDS011;5595;50.186;8.468;2022-07-22T14:35:31;5.53;;;4.70;;
11082;SDS011;5595;50.186;8.468;2022-07-22T14:37:59;4.90;;;4.05;;
11082;SDS011;5595;50.186;8.468;2022-07-22T14:40:27;4.75;;;4.35;;
11082;SDS011;5595;50.186;8.468;2022-07-22T14:42:56;5.13;;;4.63;;
11082;SDS011;5595;50.186;8.468;2022-07-22T14:45:23;6.68;;;5.07;;
11082;SDS011;5595;50.186;8.468;2022-07-22T14:47:50;5.63;;;4.55;;
11082;SDS011;5595;50.186;8.468;2022-07-22T14:50:17;5.55;;;4.65;;
11082;SDS011;5595;50.186;8.468;2022-07-22T14:52:44;5.00;;;4.45;;
11082;SDS011;5595;50.186;8.468;2022-07-22T14:55:11;5.70;;;5.20;;
11082;SDS011;5595;50.186;8.468;2022-07-22T14:57:38;6.03;;;4.60;;
11082;SDS011;5595;50.186;8.468;2022-07-22T15:00:07;5.15;;;4.65;;
11082;SDS011;5595;50.186;8.468;2022-07-22T15:02:34;5.97;;;4.30;;
11082;SDS011;5595;50.186;8.468;2022-07-22T15:05:01;5.30;;;4.60;;
11082;SDS011;5595;50.186;8.468;2022-07-22T15:07:28;5.30;;;4.88;;
11082;SDS011;5595;50.186;8.468;2022-07-22T15:09:55;7.65;;;4.72;;
11082;SDS011;5595;50.186;8.468;2022-07-22T15:12:23;5.20;;;4.30;;
11082;SDS011;5595;50.186;8.468;2022-07-22T15:14:50;5.18;;;4.78;;
11082;SDS011;5595;50.186;8.468;2022-07-22T15:17:18;5.78;;;4.60;;
11082;SDS011;5595;50.186;8.468;2022-07-22T15:19:45;4.90;;;4.40;;
11082;SDS011;5595;50.186;8.468;2022-07-22T15:22:12;4.50;;;4.05;;
11082;SDS011;5595;50.186;8.468;2022-07-22T15:24:40;5.60;;;4.50;;
11082;SDS011;5595;50.186;8.468;2022-07-22T15:27:07;5.25;;;4.25;;
11082;SDS011;5595;50.186;8.468;2022-07-22T15:29:34;6.75;;;4.55;;
11082;SDS011;5595;50.186;8.468;2022-07-22T15:32:01;5.18;;;4.50;;
11082;SDS011;5595;50.186;8.468;2022-07-22T15:34:30;4.80;;;4.20;;
11082;SDS011;5595;50.186;8.468;2022-07-22T15:36:58;4.80;;;4.30;;
11082;SDS011;5595;50.186;8.468;2022-07-22T15:39:25;4.40;;;3.97;;
11082;SDS011;5595;50.186;8.468;2022-07-22T15:41:52;6.30;;;4.30;;
11082;SDS011;5595;50.186;8.468;2022-07-22T15:44:19;6.15;;;4.22;;
11082;SDS011;5595;50.186;8.468;2022-07-22T15:46:47;7.28;;;4.60;;
11082;SDS011;5595;50.186;8.468;2022-07-22T15:49:14;4.43;;;4.03;;
11082;SDS011;5595;50.186;8.468;2022-07-22T15:51:42;5.00;;;4.50;;
11082;SDS011;5595;50.186;8.468;2022-07-22T15:54:09;8.65;;;4.55;;
11082;SDS011;5595;50.186;8.468;2022-07-22T15:56:36;4.60;;;4.13;;
11082;SDS011;5595;50.186;8.468;2022-07-22T15:59:03;7.05;;;4.63;;
11082;SDS011;5595;50.186;8.468;2022-07-22T16:01:48;6.18;;;3.95;;
11082;SDS011;5595;50.186;8.468;2022-07-22T16:04:15;5.45;;;4.38;;
11082;SDS011;5595;50.186;8.468;2022-07-22T16:06:43;4.50;;;4.13;;
11082;SDS011;5595;50.186;8.468;2022-07-22T16:09:10;7.55;;;4.32;;
11082;SDS011;5595;50.186;8.468;2022-07-22T16:11:37;6.07;;;4.45;;
11082;SDS011;5595;50.186;8.468;2022-07-22T16:14:04;6.85;;;4.55;;
11082;SDS011;5595;50.186;8.468;2022-07-22T16:16:31;5.90;;;4.32;;